createdAt,value
2018-05-09T00:00:54.907Z,0.00
2018-05-09T00:01:54.789Z,0.00
2018-05-09T00:02:54.797Z,0.00
2018-05-09T00:03:54.804Z,0.00
2018-05-09T00:04:54.938Z,0.00
2018-05-09T00:05:54.925Z,0.00
2018-05-09T00:06:54.968Z,0.00
2018-05-09T00:07:54.866Z,0.00
2018-05-09T00:08:54.999Z,0.00
2018-05-09T00:09:55.011Z,0.00
2018-05-09T00:10:55.004Z,0.00
2018-05-09T00:11:55.008Z,0.00
2018-05-09T00:12:55.055Z,0.00
2018-05-09T00:13:55.068Z,0.00
2018-05-09T00:14:55.087Z,0.00
2018-05-09T00:15:55.176Z,0.00
2018-05-09T00:16:55.113Z,0.00
2018-05-09T00:17:55.001Z,0.00
2018-05-09T00:18:55.141Z,0.00
2018-05-09T00:19:55.028Z,0.00
2018-05-09T00:20:55.152Z,0.00
2018-05-09T00:21:55.069Z,0.00
2018-05-09T00:22:55.197Z,0.00
2018-05-09T00:23:55.091Z,0.00
2018-05-09T00:24:55.097Z,0.00
2018-05-09T00:25:55.342Z,0.00
2018-05-09T00:26:55.126Z,0.00
2018-05-09T00:27:55.150Z,0.00
2018-05-09T00:28:55.286Z,0.00
2018-05-09T00:29:55.225Z,0.00
2018-05-09T00:30:55.418Z,0.00
2018-05-09T00:31:55.202Z,0.00
2018-05-09T00:32:55.341Z,0.00
2018-05-09T00:33:55.229Z,0.00
2018-05-09T00:34:55.240Z,0.00
2018-05-09T00:35:55.357Z,0.00
2018-05-09T00:36:55.395Z,0.00
2018-05-09T00:37:55.409Z,0.00
2018-05-09T00:38:55.440Z,0.00
2018-05-09T00:39:55.438Z,0.00
2018-05-09T00:40:55.552Z,0.00
2018-05-09T00:41:55.341Z,0.00
2018-05-09T00:42:55.361Z,0.00
2018-05-09T00:43:55.495Z,0.00
2018-05-09T00:44:55.389Z,0.00
2018-05-09T00:45:55.626Z,0.00
2018-05-09T00:46:55.409Z,0.00
2018-05-09T00:47:55.430Z,0.00
2018-05-09T00:48:55.564Z,0.00
2018-05-09T00:49:55.461Z,0.00
2018-05-09T00:50:55.564Z,0.00
2018-05-09T00:51:55.617Z,0.00
2018-05-09T00:52:55.494Z,0.00
2018-05-09T00:53:55.517Z,0.00
2018-05-09T00:54:55.525Z,0.00
2018-05-09T00:55:55.545Z,0.00
2018-05-09T00:56:55.776Z,0.00
2018-05-09T00:57:55.691Z,0.00
2018-05-09T00:58:55.588Z,0.00
2018-05-09T00:59:55.590Z,0.00
2018-05-09T01:00:55.620Z,0.00
2018-05-09T01:01:55.724Z,0.00
2018-05-09T01:02:55.633Z,0.00
2018-05-09T01:03:55.658Z,0.00
2018-05-09T01:04:55.666Z,0.00
2018-05-09T01:05:55.689Z,0.00
2018-05-09T01:06:55.801Z,0.00
2018-05-09T01:07:55.830Z,0.00
2018-05-09T01:08:55.725Z,0.00
2018-05-09T01:09:55.732Z,0.00
2018-05-09T01:10:55.875Z,0.00
2018-05-09T01:11:55.761Z,0.00
2018-05-09T01:12:55.873Z,0.00
2018-05-09T01:13:55.787Z,0.00
2018-05-09T01:14:55.815Z,0.00
2018-05-09T01:15:55.940Z,0.00
2018-05-09T01:16:55.956Z,0.00
2018-05-09T01:17:55.955Z,0.00
2018-05-09T01:18:55.982Z,0.00
2018-05-09T01:19:55.995Z,0.00
2018-05-09T01:20:55.882Z,0.00
2018-05-09T01:21:55.905Z,0.00
2018-05-09T01:22:56.140Z,0.00
2018-05-09T01:23:55.932Z,0.00
2018-05-09T01:24:55.939Z,0.00
2018-05-09T01:25:55.953Z,0.00
2018-05-09T01:26:56.094Z,0.00
2018-05-09T01:27:56.093Z,0.00
2018-05-09T01:28:56.119Z,0.00
2018-05-09T01:29:56.132Z,0.00
2018-05-09T01:30:56.030Z,0.00
2018-05-09T01:31:56.165Z,0.00
2018-05-09T01:32:56.160Z,0.00
2018-05-09T01:33:56.062Z,0.00
2018-05-09T01:34:56.078Z,0.00
2018-05-09T01:35:56.097Z,0.00
2018-05-09T01:36:56.103Z,0.00
2018-05-09T01:37:56.227Z,0.00
2018-05-09T01:38:56.142Z,0.00
2018-05-09T01:39:56.271Z,0.00
2018-05-09T01:40:56.169Z,0.00
2018-05-09T01:41:56.171Z,0.00
2018-05-09T01:42:56.298Z,0.00
2018-05-09T01:43:56.198Z,0.00
2018-05-09T01:44:56.227Z,0.00
2018-05-09T01:45:56.235Z,0.00
2018-05-09T01:46:56.371Z,0.00
2018-05-09T01:47:56.482Z,0.00
2018-05-09T01:48:56.394Z,0.00
2018-05-09T01:49:56.292Z,0.00
2018-05-09T01:50:56.304Z,0.00
2018-05-09T01:51:56.310Z,0.00
2018-05-09T01:52:56.433Z,0.00
2018-05-09T01:53:56.339Z,0.00
2018-05-09T01:54:56.511Z,0.00
2018-05-09T01:55:56.493Z,0.00
2018-05-09T01:56:56.506Z,0.00
2018-05-09T01:57:56.395Z,0.00
2018-05-09T01:58:56.631Z,0.00
2018-05-09T01:59:56.548Z,0.00
2018-05-09T02:00:56.559Z,0.00
2018-05-09T02:01:56.444Z,0.00
2018-05-09T02:02:56.475Z,0.00
2018-05-09T02:03:56.699Z,0.00
2018-05-09T02:04:56.495Z,0.00
2018-05-09T02:05:56.574Z,0.00
2018-05-09T02:06:56.526Z,0.00
2018-05-09T02:07:56.656Z,0.00
2018-05-09T02:08:56.655Z,0.00
2018-05-09T02:09:56.558Z,0.00
2018-05-09T02:10:56.568Z,0.00
2018-05-09T02:11:56.710Z,0.00
2018-05-09T02:12:56.723Z,0.00
2018-05-09T02:13:56.709Z,0.00
2018-05-09T02:14:56.747Z,0.00
2018-05-09T02:15:56.761Z,0.00
2018-05-09T02:16:56.775Z,0.00
2018-05-09T02:17:56.788Z,0.00
2018-05-09T02:18:56.687Z,0.00
2018-05-09T02:19:56.789Z,0.00
2018-05-09T02:20:56.715Z,0.00
2018-05-09T02:21:56.716Z,0.00
2018-05-09T02:22:56.856Z,0.00
2018-05-09T02:23:56.780Z,0.00
2018-05-09T02:24:56.863Z,0.00
2018-05-09T02:25:56.782Z,0.00
2018-05-09T02:26:56.789Z,0.00
2018-05-09T02:27:56.796Z,0.00
2018-05-09T02:28:56.938Z,0.00
2018-05-09T02:29:56.923Z,0.00
2018-05-09T02:30:56.837Z,0.00
2018-05-09T02:31:56.980Z,0.00
2018-05-09T02:32:56.861Z,0.00
2018-05-09T02:33:56.882Z,0.00
2018-05-09T02:34:57.114Z,0.00
2018-05-09T02:35:57.031Z,0.00
2018-05-09T02:36:57.040Z,0.00
2018-05-09T02:37:57.057Z,0.00
2018-05-09T02:38:56.949Z,0.00
2018-05-09T02:39:57.020Z,0.00
2018-05-09T02:40:57.099Z,0.00
2018-05-09T02:41:57.110Z,0.00
2018-05-09T02:42:57.003Z,0.00
2018-05-09T02:43:57.007Z,0.00
2018-05-09T02:44:57.129Z,0.00
2018-05-09T02:45:57.034Z,0.00
2018-05-09T02:46:57.057Z,0.00
2018-05-09T02:47:57.062Z,0.00
2018-05-09T02:48:57.082Z,0.00
2018-05-09T02:49:57.413Z,0.00
2018-05-09T02:50:57.234Z,0.00
2018-05-09T02:51:57.126Z,0.00
2018-05-09T02:52:57.256Z,0.00
2018-05-09T02:53:57.269Z,0.00
2018-05-09T02:54:57.379Z,0.00
2018-05-09T02:55:57.175Z,0.00
2018-05-09T02:56:57.192Z,0.00
2018-05-09T02:57:57.192Z,0.00
2018-05-09T02:58:57.335Z,0.00
2018-05-09T02:59:57.446Z,0.00
2018-05-09T03:00:57.358Z,0.00
2018-05-09T03:01:57.254Z,0.00
2018-05-09T03:02:57.388Z,0.00
2018-05-09T03:03:57.280Z,0.00
2018-05-09T03:04:57.510Z,0.00
2018-05-09T03:05:57.426Z,0.00
2018-05-09T03:06:57.311Z,0.00
2018-05-09T03:07:57.331Z,0.00
2018-05-09T03:08:57.337Z,0.00
2018-05-09T03:09:57.451Z,0.00
2018-05-09T03:10:57.374Z,0.00
2018-05-09T03:11:57.376Z,0.00
2018-05-09T03:12:57.395Z,0.00
2018-05-09T03:13:57.533Z,0.00
2018-05-09T03:14:57.542Z,0.00
2018-05-09T03:15:57.753Z,0.00
2018-05-09T03:16:57.448Z,0.00
2018-05-09T03:17:57.464Z,0.00
2018-05-09T03:18:57.479Z,0.00
2018-05-09T03:19:57.607Z,0.00
2018-05-09T03:20:57.595Z,0.00
2018-05-09T03:21:57.518Z,0.00
2018-05-09T03:22:57.524Z,0.00
2018-05-09T03:23:57.532Z,0.00
2018-05-09T03:24:57.550Z,0.00
2018-05-09T03:25:57.657Z,0.00
2018-05-09T03:26:57.573Z,0.00
2018-05-09T03:27:57.710Z,0.00
2018-05-09T03:28:57.721Z,0.00
2018-05-09T03:29:57.735Z,0.00
2018-05-09T03:30:57.847Z,0.00
2018-05-09T03:31:57.760Z,0.00
2018-05-09T03:32:57.773Z,0.00
2018-05-09T03:33:57.785Z,0.00
2018-05-09T03:34:57.799Z,0.00
2018-05-09T03:35:57.687Z,0.00
2018-05-09T03:36:57.975Z,0.00
2018-05-09T03:37:57.841Z,0.00
2018-05-09T03:38:57.724Z,0.00
2018-05-09T03:39:57.738Z,0.00
2018-05-09T03:40:57.879Z,0.00
2018-05-09T03:41:57.875Z,0.00
2018-05-09T03:42:57.784Z,0.00
2018-05-09T03:43:57.805Z,0.00
2018-05-09T03:44:57.802Z,0.00
2018-05-09T03:45:57.943Z,0.00
2018-05-09T03:46:58.057Z,0.00
2018-05-09T03:47:57.976Z,0.00
2018-05-09T03:48:57.866Z,0.00
2018-05-09T03:49:57.872Z,0.00
2018-05-09T03:50:58.009Z,0.00
2018-05-09T03:51:57.993Z,0.00
2018-05-09T03:52:58.032Z,0.00
2018-05-09T03:53:58.045Z,0.00
2018-05-09T03:54:57.940Z,0.00
2018-05-09T03:55:57.948Z,0.00
2018-05-09T03:56:58.065Z,0.00
2018-05-09T03:57:57.974Z,0.00
2018-05-09T03:58:57.987Z,0.00
2018-05-09T03:59:57.999Z,0.00
2018-05-09T04:00:58.008Z,0.00
2018-05-09T04:01:58.129Z,0.00
2018-05-09T04:02:58.165Z,0.00
2018-05-09T04:03:58.175Z,0.00
2018-05-09T04:04:58.187Z,0.00
2018-05-09T04:05:58.088Z,0.00
2018-05-09T04:06:58.197Z,0.00
2018-05-09T04:07:58.226Z,0.00
2018-05-09T04:08:58.111Z,0.00
2018-05-09T04:09:58.140Z,0.00
2018-05-09T04:10:58.265Z,0.00
2018-05-09T04:11:58.378Z,0.00
2018-05-09T04:12:58.173Z,0.00
2018-05-09T04:13:58.212Z,0.00
2018-05-09T04:14:58.353Z,0.00
2018-05-09T04:15:58.210Z,0.00
2018-05-09T04:16:58.216Z,0.00
2018-05-09T04:17:58.335Z,0.00
2018-05-09T04:18:58.369Z,0.00
2018-05-09T04:19:58.253Z,0.00
2018-05-09T04:20:58.326Z,0.00
2018-05-09T04:21:58.288Z,0.00
2018-05-09T04:22:58.406Z,0.00
2018-05-09T04:23:58.314Z,0.00
2018-05-09T04:24:58.444Z,0.00
2018-05-09T04:25:58.344Z,0.00
2018-05-09T04:26:58.470Z,0.00
2018-05-09T04:27:58.481Z,0.00
2018-05-09T04:28:58.497Z,0.00
2018-05-09T04:29:58.389Z,0.00
2018-05-09T04:30:58.522Z,0.00
2018-05-09T04:31:58.406Z,0.00
2018-05-09T04:32:58.698Z,0.00
2018-05-09T04:33:58.445Z,0.00
2018-05-09T04:34:58.454Z,0.00
2018-05-09T04:35:58.594Z,0.00
2018-05-09T04:36:58.485Z,0.00
2018-05-09T04:37:58.497Z,0.00
2018-05-09T04:38:58.598Z,0.00
2018-05-09T04:39:58.518Z,0.00
2018-05-09T04:40:58.523Z,0.00
2018-05-09T04:41:58.562Z,0.00
2018-05-09T04:42:58.675Z,0.00
2018-05-09T04:43:58.840Z,0.00
2018-05-09T04:44:58.701Z,0.00
2018-05-09T04:45:58.715Z,0.00
2018-05-09T04:46:58.604Z,0.00
2018-05-09T04:47:58.625Z,0.00
2018-05-09T04:48:58.891Z,0.00
2018-05-09T04:49:58.762Z,0.00
2018-05-09T04:50:58.775Z,0.00
2018-05-09T04:51:58.662Z,0.00
2018-05-09T04:52:58.683Z,0.00
2018-05-09T04:53:58.835Z,0.00
2018-05-09T04:54:58.764Z,0.00
2018-05-09T04:55:58.711Z,0.00
2018-05-09T04:56:58.851Z,0.00
2018-05-09T04:57:58.736Z,0.00
2018-05-09T04:58:58.755Z,0.00
2018-05-09T04:59:58.928Z,0.00
2018-05-09T05:00:58.783Z,0.00
2018-05-09T05:01:58.913Z,0.00
2018-05-09T05:02:58.800Z,0.00
2018-05-09T05:03:58.829Z,0.00
2018-05-09T05:04:58.875Z,0.00
2018-05-09T05:05:58.924Z,0.00
2018-05-09T05:06:58.987Z,0.00
2018-05-09T05:07:58.871Z,0.00
2018-05-09T05:08:59.001Z,0.00
2018-05-09T05:09:59.005Z,0.00
2018-05-09T05:10:58.915Z,0.00
2018-05-09T05:11:59.051Z,0.00
2018-05-09T05:12:59.052Z,0.00
2018-05-09T05:13:58.937Z,0.00
2018-05-09T05:14:59.053Z,0.00
2018-05-09T05:15:59.095Z,0.00
2018-05-09T05:16:59.105Z,0.00
2018-05-09T05:17:59.115Z,0.00
2018-05-09T05:18:59.130Z,0.00
2018-05-09T05:19:59.117Z,0.00
2018-05-09T05:20:59.154Z,0.00
2018-05-09T05:21:59.039Z,0.00
2018-05-09T05:22:59.180Z,0.00
2018-05-09T05:23:59.081Z,0.00
2018-05-09T05:24:59.175Z,0.00
2018-05-09T05:25:59.214Z,0.00
2018-05-09T05:26:59.120Z,0.00
2018-05-09T05:27:59.243Z,0.00
2018-05-09T05:28:59.135Z,0.00
2018-05-09T05:29:59.253Z,0.00
2018-05-09T05:30:59.285Z,0.00
2018-05-09T05:31:59.292Z,0.00
2018-05-09T05:32:59.306Z,0.00
2018-05-09T05:33:59.190Z,0.00
2018-05-09T05:34:59.343Z,0.00
2018-05-09T05:35:59.343Z,0.00
2018-05-09T05:36:59.355Z,0.00
2018-05-09T05:37:59.369Z,0.00
2018-05-09T05:38:59.255Z,0.00
2018-05-09T05:39:59.270Z,0.00
2018-05-09T05:40:59.503Z,0.00
2018-05-09T05:41:59.421Z,0.00
2018-05-09T05:42:59.430Z,0.00
2018-05-09T05:43:59.445Z,0.00
2018-05-09T05:44:59.531Z,0.00
2018-05-09T05:45:59.464Z,0.00
2018-05-09T05:46:59.351Z,0.00
2018-05-09T05:47:59.380Z,0.00
2018-05-09T05:48:59.382Z,0.00
2018-05-09T05:49:59.413Z,0.00
2018-05-09T05:50:59.629Z,0.00
2018-05-09T05:51:59.605Z,0.00
2018-05-09T05:52:59.427Z,0.00
2018-05-09T05:53:59.452Z,0.00
2018-05-09T05:54:59.579Z,0.00
2018-05-09T05:55:59.670Z,0.00
2018-05-09T05:56:59.477Z,0.00
2018-05-09T05:57:59.498Z,0.00
2018-05-09T05:58:59.506Z,0.00
2018-05-09T05:59:59.519Z,0.00
2018-05-09T06:00:59.629Z,0.00
2018-05-09T06:01:59.549Z,0.00
2018-05-09T06:02:59.568Z,0.00
2018-05-09T06:03:59.571Z,0.00
2018-05-09T06:04:59.595Z,0.00
2018-05-09T06:05:59.721Z,0.00
2018-05-09T06:06:59.763Z,0.00
2018-05-09T06:07:59.781Z,0.00
2018-05-09T06:08:59.634Z,0.00
2018-05-09T06:09:59.641Z,0.00
2018-05-09T06:10:59.662Z,0.00
2018-05-09T06:11:59.767Z,0.00
2018-05-09T06:12:59.687Z,0.00
2018-05-09T06:13:59.692Z,0.00
2018-05-09T06:14:59.702Z,0.00
2018-05-09T06:15:59.843Z,0.00
2018-05-09T06:16:59.835Z,0.00
2018-05-09T06:17:59.742Z,0.00
2018-05-09T06:18:59.762Z,0.00
2018-05-09T06:19:59.894Z,0.00
2018-05-09T06:20:59.790Z,0.00
2018-05-09T06:21:59.891Z,0.00
2018-05-09T06:22:59.805Z,0.00
2018-05-09T06:24:00.048Z,0.00
2018-05-09T06:24:59.829Z,0.00
2018-05-09T06:25:59.970Z,0.00
2018-05-09T06:26:59.968Z,0.00
2018-05-09T06:27:59.992Z,0.00
2018-05-09T06:28:59.892Z,0.00
2018-05-09T06:29:59.901Z,0.00
2018-05-09T06:30:59.995Z,0.00
2018-05-09T06:32:00.143Z,0.00
2018-05-09T06:33:00.057Z,0.00
2018-05-09T06:34:00.071Z,0.00
2018-05-09T06:34:59.956Z,0.00
2018-05-09T06:36:00.094Z,0.00
2018-05-09T06:37:00.083Z,0.00
2018-05-09T06:38:00.002Z,0.00
2018-05-09T06:39:00.013Z,0.00
2018-05-09T06:40:00.145Z,0.00
2018-05-09T06:41:00.156Z,0.00
2018-05-09T06:42:00.269Z,0.00
2018-05-09T06:43:00.064Z,0.00
2018-05-09T06:44:00.198Z,0.00
2018-05-09T06:45:00.085Z,0.00
2018-05-09T06:46:00.121Z,0.00
2018-05-09T06:47:00.217Z,0.00
2018-05-09T06:48:00.127Z,0.00
2018-05-09T06:49:00.129Z,0.00
2018-05-09T06:50:00.164Z,0.00
2018-05-09T06:51:00.154Z,0.00
2018-05-09T06:52:00.394Z,0.00
2018-05-09T06:53:00.311Z,0.00
2018-05-09T06:54:00.199Z,0.00
2018-05-09T06:55:00.331Z,0.00
2018-05-09T06:56:00.343Z,0.00
2018-05-09T06:57:00.455Z,0.00
2018-05-09T06:58:00.243Z,0.00
2018-05-09T06:59:00.338Z,0.00
2018-05-09T07:00:00.462Z,0.00
2018-05-09T07:01:00.412Z,0.00
2018-05-09T07:02:00.398Z,0.00
2018-05-09T07:03:00.317Z,0.00
2018-05-09T07:04:00.316Z,0.00
2018-05-09T07:05:00.456Z,0.00
2018-05-09T07:06:00.355Z,0.00
2018-05-09T07:07:00.462Z,0.00
2018-05-09T07:08:00.379Z,0.00
2018-05-09T07:09:00.505Z,0.00
2018-05-09T07:10:00.392Z,0.00
2018-05-09T07:11:00.411Z,0.00
2018-05-09T07:12:00.693Z,0.00
2018-05-09T07:13:00.435Z,0.00
2018-05-09T07:14:00.567Z,0.00
2018-05-09T07:15:00.456Z,0.00
2018-05-09T07:16:00.478Z,0.00
2018-05-09T07:17:00.606Z,0.00
2018-05-09T07:18:00.717Z,0.00
2018-05-09T07:19:00.630Z,0.00
2018-05-09T07:20:00.649Z,0.00
2018-05-09T07:21:00.528Z,0.00
2018-05-09T07:22:00.555Z,0.00
2018-05-09T07:23:00.552Z,0.00
2018-05-09T07:24:00.791Z,0.00
2018-05-09T07:25:00.704Z,0.00
2018-05-09T07:26:00.592Z,0.00
2018-05-09T07:27:00.611Z,0.00
2018-05-09T07:28:00.623Z,0.00
2018-05-09T07:29:00.852Z,0.00
2018-05-09T07:30:00.764Z,0.00
2018-05-09T07:31:00.780Z,0.00
2018-05-09T07:32:00.673Z,0.00
2018-05-09T07:33:00.695Z,0.00
2018-05-09T07:34:00.914Z,0.00
2018-05-09T07:35:00.714Z,0.00
2018-05-09T07:36:00.716Z,0.00
2018-05-09T07:37:00.728Z,0.00
2018-05-09T07:38:00.737Z,0.00
2018-05-09T07:39:00.758Z,0.00
2018-05-09T07:40:00.990Z,0.00
2018-05-09T07:41:00.902Z,0.00
2018-05-09T07:42:00.915Z,0.00
2018-05-09T07:43:00.808Z,0.00
2018-05-09T07:44:00.938Z,0.00
2018-05-09T07:45:00.923Z,0.00
2018-05-09T07:46:00.962Z,0.00
2018-05-09T07:47:00.858Z,0.00
2018-05-09T07:48:00.964Z,0.00
2018-05-09T07:49:00.875Z,0.00
2018-05-09T07:50:01.116Z,0.00
2018-05-09T07:51:00.900Z,0.00
2018-05-09T07:52:01.038Z,0.00
2018-05-09T07:53:00.923Z,0.00
2018-05-09T07:54:00.947Z,0.00
2018-05-09T07:55:01.049Z,0.00
2018-05-09T07:56:00.963Z,0.00
2018-05-09T07:57:01.100Z,0.00
2018-05-09T07:58:01.112Z,0.00
2018-05-09T07:59:01.125Z,0.00
2018-05-09T08:00:01.119Z,0.00
2018-05-09T08:01:01.029Z,0.00
2018-05-09T08:02:01.040Z,0.00
2018-05-09T08:03:01.175Z,0.00
2018-05-09T08:04:01.185Z,0.00
2018-05-09T08:05:01.303Z,0.00
2018-05-09T08:06:01.158Z,0.00
2018-05-09T08:07:01.226Z,0.00
2018-05-09T08:08:01.107Z,0.00
2018-05-09T08:09:01.118Z,0.00
2018-05-09T08:10:01.232Z,0.00
2018-05-09T08:11:01.153Z,0.00
2018-05-09T08:12:01.283Z,0.00
2018-05-09T08:13:01.168Z,0.00
2018-05-09T08:14:01.307Z,0.00
2018-05-09T08:15:01.295Z,0.00
2018-05-09T08:16:01.334Z,0.00
2018-05-09T08:17:01.220Z,0.00
2018-05-09T08:18:01.245Z,0.00
2018-05-09T08:19:01.370Z,0.00
2018-05-09T08:20:01.483Z,0.00
2018-05-09T08:21:01.394Z,0.00
2018-05-09T08:22:01.293Z,0.00
2018-05-09T08:23:01.419Z,0.00
2018-05-09T08:24:01.306Z,0.00
2018-05-09T08:25:01.416Z,0.00
2018-05-09T08:26:01.460Z,0.00
2018-05-09T08:27:01.340Z,0.00
2018-05-09T08:28:01.479Z,0.00
2018-05-09T08:29:01.365Z,0.00
2018-05-09T08:30:01.606Z,0.00
2018-05-09T08:31:01.403Z,0.00
2018-05-09T08:32:01.529Z,0.00
2018-05-09T08:33:01.540Z,0.00
2018-05-09T08:34:01.553Z,0.00
2018-05-09T08:35:01.566Z,0.00
2018-05-09T08:36:01.501Z,0.00
2018-05-09T08:37:01.469Z,0.00
2018-05-09T08:38:01.474Z,0.00
2018-05-09T08:39:01.503Z,0.00
2018-05-09T08:40:01.626Z,0.00
2018-05-09T08:41:01.741Z,0.00
2018-05-09T08:42:01.527Z,0.00
2018-05-09T08:43:01.661Z,0.00
2018-05-09T08:44:01.777Z,0.00
2018-05-09T08:45:01.559Z,0.00
2018-05-09T08:46:01.799Z,0.00
2018-05-09T08:47:01.711Z,0.00
2018-05-09T08:48:01.597Z,0.00
2018-05-09T08:49:01.606Z,0.00
2018-05-09T08:50:01.747Z,0.00
2018-05-09T08:51:01.646Z,0.00
2018-05-09T08:52:01.872Z,0.00
2018-05-09T08:53:01.671Z,0.00
2018-05-09T08:54:01.675Z,0.00
2018-05-09T08:55:01.682Z,0.00
2018-05-09T08:56:01.820Z,0.00
2018-05-09T08:57:01.931Z,0.00
2018-05-09T08:58:01.730Z,0.00
2018-05-09T08:59:01.730Z,0.00
2018-05-09T09:00:01.873Z,0.00
2018-05-09T09:01:01.880Z,0.00
2018-05-09T09:02:01.995Z,0.00
2018-05-09T09:03:01.787Z,0.00
2018-05-09T09:04:01.805Z,0.00
2018-05-09T09:05:01.930Z,4.00
2018-05-09T09:06:01.829Z,0.00
2018-05-09T09:08:01.848Z,4.00
2018-05-09T09:09:01.978Z,8.00
2018-05-09T09:10:01.878Z,8.00
2018-05-09T09:11:02.004Z,8.00
2018-05-09T09:12:02.117Z,12.00
2018-05-09T09:13:02.082Z,16.00
2018-05-09T09:14:01.919Z,20.00
2018-05-09T09:15:01.928Z,28.00
2018-05-09T09:16:01.943Z,36.00
2018-05-09T09:17:02.176Z,48.00
2018-05-09T09:18:01.968Z,56.00
2018-05-09T09:19:02.097Z,68.00
2018-05-09T09:20:01.987Z,84.00
2018-05-09T09:21:01.999Z,104.00
2018-05-09T09:22:02.110Z,124.00
2018-05-09T09:23:02.049Z,148.00
2018-05-09T09:24:02.032Z,172.00
2018-05-09T09:25:02.173Z,204.00
2018-05-09T09:26:02.057Z,240.00
2018-05-09T09:27:02.185Z,272.00
2018-05-09T09:28:02.089Z,316.00
2018-05-09T09:29:02.107Z,360.00
2018-05-09T09:30:02.114Z,408.00
2018-05-09T09:31:02.249Z,464.00
2018-05-09T09:32:02.356Z,516.00
2018-05-09T09:33:02.268Z,576.00
2018-05-09T09:34:02.167Z,640.00
2018-05-09T09:35:02.172Z,704.00
2018-05-09T09:36:02.304Z,776.00
2018-05-09T09:37:02.305Z,860.00
2018-05-09T09:38:02.201Z,940.00
2018-05-09T09:39:02.233Z,1060.00
2018-05-09T09:40:02.235Z,1464.00
2018-05-09T09:41:02.254Z,2000.00
2018-05-09T09:42:02.323Z,1936.00
2018-05-09T09:43:02.279Z,1688.00
2018-05-09T09:44:02.402Z,1796.00
2018-05-09T09:45:02.295Z,1912.00
2018-05-09T09:46:02.429Z,2144.00
2018-05-09T09:47:02.313Z,2296.00
2018-05-09T09:48:02.553Z,2008.00
2018-05-09T09:49:02.344Z,1796.00
2018-05-09T09:50:02.349Z,1868.00
2018-05-09T09:51:02.367Z,2116.00
2018-05-09T09:52:02.370Z,2252.00
2018-05-09T09:53:02.613Z,2104.00
2018-05-09T09:54:02.525Z,2084.00
2018-05-09T09:55:02.418Z,2160.00
2018-05-09T09:56:02.424Z,2256.00
2018-05-09T09:57:02.437Z,2356.00
2018-05-09T09:58:02.676Z,2560.00
2018-05-09T09:59:02.590Z,2696.00
2018-05-09T10:00:02.601Z,2776.00
2018-05-09T10:01:02.499Z,2848.00
2018-05-09T10:02:02.627Z,2996.00
2018-05-09T10:03:02.736Z,3388.00
2018-05-09T10:04:02.530Z,4516.00
2018-05-09T10:05:02.531Z,11008.00
2018-05-09T10:06:02.560Z,9928.00
2018-05-09T10:07:02.572Z,9436.00
2018-05-09T10:08:02.734Z,8252.00
2018-05-09T10:09:02.582Z,5524.00
2018-05-09T10:10:02.596Z,5764.00
2018-05-09T10:11:02.613Z,5912.00
2018-05-09T10:12:02.648Z,6044.00
2018-05-09T10:13:02.760Z,10084.00
2018-05-09T10:14:02.776Z,16864.00
2018-05-09T10:15:02.788Z,18720.00
2018-05-09T10:16:02.859Z,18976.00
2018-05-09T10:17:02.691Z,19360.00
2018-05-09T10:18:02.809Z,19584.00
2018-05-09T10:19:02.840Z,19936.00
2018-05-09T10:20:02.729Z,20256.00
2018-05-09T10:21:02.754Z,20608.00
2018-05-09T10:22:02.759Z,20864.00
2018-05-09T10:23:02.999Z,21216.00
2018-05-09T10:24:02.911Z,21504.00
2018-05-09T10:25:02.799Z,21792.00
2018-05-09T10:26:02.812Z,22112.00
2018-05-09T10:27:02.840Z,22400.00
2018-05-09T10:28:02.942Z,22592.00
2018-05-09T10:29:02.868Z,22720.00
2018-05-09T10:30:02.888Z,23040.00
2018-05-09T10:31:02.887Z,23232.00
2018-05-09T10:32:02.928Z,23392.00
2018-05-09T10:33:03.198Z,23680.00
2018-05-09T10:34:03.062Z,24064.00
2018-05-09T10:35:02.958Z,24448.00
2018-05-09T10:36:02.992Z,24800.00
2018-05-09T10:37:03.112Z,25088.00
2018-05-09T10:38:03.152Z,25280.00
2018-05-09T10:39:03.146Z,25312.00
2018-05-09T10:40:03.051Z,25696.00
2018-05-09T10:41:03.054Z,25888.00
2018-05-09T10:42:03.197Z,26048.00
2018-05-09T10:43:03.188Z,26304.00
2018-05-09T10:44:03.131Z,26528.00
2018-05-09T10:45:03.253Z,26592.00
2018-05-09T10:46:03.137Z,26880.00
2018-05-09T10:47:03.290Z,27136.00
2018-05-09T10:48:03.273Z,27328.00
2018-05-09T10:49:03.201Z,27552.00
2018-05-09T10:50:03.210Z,28000.00
2018-05-09T10:51:03.247Z,28256.00
2018-05-09T10:52:03.255Z,28256.00
2018-05-09T10:53:03.388Z,28416.00
2018-05-09T10:54:03.291Z,28896.00
2018-05-09T10:55:03.309Z,29056.00
2018-05-09T10:56:03.446Z,29216.00
2018-05-09T10:57:03.464Z,29344.00
2018-05-09T10:58:03.582Z,29632.00
2018-05-09T10:59:03.378Z,29856.00
2018-05-09T11:00:03.409Z,30080.00
2018-05-09T11:01:03.540Z,30272.00
2018-05-09T11:02:03.443Z,30432.00
2018-05-09T11:03:03.595Z,30592.00
2018-05-09T11:04:03.595Z,30688.00
2018-05-09T11:05:03.585Z,31264.00
2018-05-09T11:06:03.499Z,31232.00
2018-05-09T11:07:03.523Z,31584.00
2018-05-09T11:08:03.699Z,31616.00
2018-05-09T11:09:03.557Z,31936.00
2018-05-09T11:10:03.589Z,31936.00
2018-05-09T11:11:03.605Z,32096.00
2018-05-09T11:12:03.610Z,31904.00
2018-05-09T11:13:03.961Z,32320.00
2018-05-09T11:14:03.655Z,32384.00
2018-05-09T11:15:03.802Z,32768.00
2018-05-09T11:16:03.704Z,21952.00
2018-05-09T11:17:03.837Z,22336.00
2018-05-09T11:18:03.826Z,32576.00
2018-05-09T11:19:03.875Z,17440.00
2018-05-09T11:20:03.893Z,33600.00
2018-05-09T11:21:03.784Z,20896.00
2018-05-09T11:22:03.819Z,34272.00
2018-05-09T11:23:04.101Z,34336.00
2018-05-09T11:24:03.849Z,10120.00
2018-05-09T11:25:03.870Z,23712.00
2018-05-09T11:26:03.884Z,40000.00
2018-05-09T11:27:03.907Z,20960.00
2018-05-09T11:28:04.031Z,25216.00
2018-05-09T11:29:03.940Z,35616.00
2018-05-09T11:30:04.085Z,18528.00
2018-05-09T11:32:04.007Z,36672.00
2018-05-09T11:33:04.290Z,32192.00
2018-05-09T11:34:04.033Z,37056.00
2018-05-09T11:35:04.054Z,14748.00
2018-05-09T11:36:04.199Z,26048.00
2018-05-09T11:37:04.093Z,37632.00
2018-05-09T11:38:04.267Z,16448.00
2018-05-09T11:39:04.254Z,38240.00
2018-05-09T11:40:04.176Z,23360.00
2018-05-09T11:41:04.292Z,11672.00
2018-05-09T11:42:04.190Z,16128.00
2018-05-09T11:43:04.485Z,8624.00
2018-05-09T11:44:04.224Z,0.00
2018-05-09T11:45:04.250Z,4924.00
2018-05-09T11:46:04.262Z,9280.00
2018-05-09T11:47:04.408Z,109664.00
2018-05-09T11:48:04.402Z,64992.00
2018-05-09T11:49:04.446Z,75328.00
2018-05-09T11:50:04.339Z,57472.00
2018-05-09T11:51:04.363Z,89600.00
2018-05-09T11:52:04.376Z,110304.00
2018-05-09T11:53:04.575Z,0.00
2018-05-09T11:54:04.413Z,117120.00
2018-05-09T11:55:04.439Z,23852.00
2018-05-09T11:56:04.576Z,53152.00
2018-05-09T11:57:04.618Z,112864.00
2018-05-09T11:58:04.647Z,65568.00
2018-05-09T11:59:04.630Z,66624.00
2018-05-09T12:00:04.530Z,70176.00
2018-05-09T12:01:04.598Z,27040.00
2018-05-09T12:02:04.560Z,101280.00
2018-05-09T12:03:04.737Z,58912.00
2018-05-09T12:04:04.603Z,2976.00
2018-05-09T12:05:04.743Z,101824.00
2018-05-09T12:06:04.640Z,25504.00
2018-05-09T12:07:04.656Z,0.00
2018-05-09T12:08:04.836Z,91488.00
2018-05-09T12:09:04.688Z,75040.00
2018-05-09T12:10:04.835Z,86240.00
2018-05-09T12:11:04.850Z,54784.00
2018-05-09T12:12:04.871Z,26656.00
2018-05-09T12:13:04.869Z,9068.00
2018-05-09T12:14:04.777Z,72000.00
2018-05-09T12:15:04.800Z,20416.00
2018-05-09T12:16:04.943Z,9332.00
2018-05-09T12:17:04.835Z,15236.00
2018-05-09T12:18:05.132Z,8564.00
2018-05-09T12:19:04.870Z,18656.00
2018-05-09T12:20:05.015Z,20512.00
2018-05-09T12:21:04.920Z,29792.00
2018-05-09T12:22:04.933Z,11856.00
2018-05-09T12:23:05.092Z,10500.00
2018-05-09T12:24:04.975Z,7532.00
2018-05-09T12:25:04.992Z,0.00
2018-05-09T12:26:05.128Z,7880.00
2018-05-09T12:27:05.019Z,31328.00
2018-05-09T12:28:05.258Z,7504.00
2018-05-09T12:29:05.051Z,7528.00
2018-05-09T12:30:05.073Z,8044.00
2018-05-09T12:31:05.209Z,7564.00
2018-05-09T12:32:05.104Z,7640.00
2018-05-09T12:33:05.227Z,7328.00
2018-05-09T12:34:05.134Z,8444.00
2018-05-09T12:35:05.282Z,7272.00
2018-05-09T12:36:05.297Z,7360.00
2018-05-09T12:37:05.314Z,7684.00
2018-05-09T12:38:05.368Z,7472.00
2018-05-09T12:39:05.354Z,19840.00
2018-05-09T12:40:05.241Z,15104.00
2018-05-09T12:41:05.384Z,12348.00
2018-05-09T12:42:05.271Z,7788.00
2018-05-09T12:43:05.446Z,103232.00
2018-05-09T12:44:05.416Z,8120.00
2018-05-09T12:45:05.322Z,8004.00
2018-05-09T12:46:05.471Z,8124.00
2018-05-09T12:47:05.485Z,55552.00
2018-05-09T12:48:05.502Z,10184.00
2018-05-09T12:49:05.674Z,65888.00
2018-05-09T12:50:05.420Z,8252.00
2018-05-09T12:51:05.556Z,8576.00
2018-05-09T12:52:05.573Z,8592.00
2018-05-09T12:53:05.588Z,9012.00
2018-05-09T12:54:05.606Z,9292.00
2018-05-09T12:55:05.497Z,8664.00
2018-05-09T12:56:05.642Z,18656.00